Tramping Lake, Canada
Current Conditions -  °F | °C
As of 10:00 PM on Tuesday 25 Nov 2014 (Local Time) from CYKY Reporting Station
Light Snow Light Snow  
Wind Chill:   Ceiling: 1800
Heat Index: 12°   Visibility: 12mi
Dew Point:   Wind: 7mph
Humidity: 85%   Direction: 30°NNE
Pressure: 30.18"   Gusts: NA
Location:  52.13°N, 108.95°W
Report Text: CYKY 260400Z 03006KT 12SM -SN OVC018 M11/M13 A3018 RMK SC8 SLP267
Loading
Personal Weather Stations






























Interactive Weather Map New forecast layout! Learn more

10-Day Weather Forecast

Advertisements
Track Severe Weather on mobile